createdAt,value
2022-10-05T00:00:01.010Z,87.60
2022-10-05T00:00:35.748Z,87.78
2022-10-05T00:01:23.026Z,87.72
2022-10-05T00:01:57.740Z,87.65
2022-10-05T00:02:32.650Z,87.62
2022-10-05T00:03:11.379Z,87.46
2022-10-05T00:03:46.082Z,87.76
2022-10-05T00:04:20.087Z,87.93
2022-10-05T00:04:54.371Z,88.18
2022-10-05T00:05:32.253Z,87.78
2022-10-05T00:06:05.104Z,87.68
2022-10-05T00:06:37.236Z,87.54
2022-10-05T00:07:16.332Z,88.01
2022-10-05T00:07:48.871Z,87.81
2022-10-05T00:08:28.126Z,88.13
2022-10-05T00:09:01.395Z,88.24
2022-10-05T00:09:34.417Z,88.01
2022-10-05T00:10:16.767Z,88.29
2022-10-05T00:10:50.069Z,88.02
2022-10-05T00:11:22.191Z,88.02
2022-10-05T00:11:56.959Z,88.03
2022-10-05T00:12:30.003Z,87.99
2022-10-05T00:13:02.207Z,88.02
2022-10-05T00:13:37.185Z,88.24
2022-10-05T00:14:18.709Z,88.29
2022-10-05T00:14:55.873Z,88.31
2022-10-05T00:15:28.160Z,88.42
2022-10-05T00:16:09.436Z,88.67
2022-10-05T00:16:44.671Z,88.77
2022-10-05T00:17:20.341Z,88.56
2022-10-05T00:17:52.467Z,89.03
2022-10-05T00:18:27.163Z,88.66
2022-10-05T00:19:00.119Z,88.57
2022-10-05T00:19:35.185Z,88.88
2022-10-05T00:20:19.338Z,88.84
2022-10-05T00:20:51.495Z,89.15
2022-10-05T00:21:26.224Z,88.91
2022-10-05T00:22:02.989Z,89.14
2022-10-05T00:22:35.218Z,89.01
2022-10-05T00:23:14.106Z,89.33
2022-10-05T00:23:51.820Z,89.17
2022-10-05T00:24:24.021Z,89.23
2022-10-05T00:24:59.270Z,89.33
2022-10-05T00:25:34.038Z,89.29
2022-10-05T00:26:14.209Z,89.29
2022-10-05T00:26:46.840Z,89.09
2022-10-05T00:27:23.986Z,88.99
2022-10-05T00:27:57.958Z,88.99
2022-10-05T00:28:31.018Z,89.39
2022-10-05T00:29:17.413Z,89.39
2022-10-05T00:29:51.679Z,89.23
2022-10-05T00:30:28.636Z,89.46
2022-10-05T00:31:01.202Z,89.67
2022-10-05T00:31:36.285Z,89.62
2022-10-05T00:32:12.701Z,89.53
2022-10-05T00:32:45.726Z,89.47
2022-10-05T00:33:17.789Z,89.90
2022-10-05T00:33:52.612Z,90.02
2022-10-05T00:34:24.866Z,89.96
2022-10-05T00:34:57.897Z,90.09
2022-10-05T00:35:32.621Z,89.97
2022-10-05T00:36:07.271Z,89.67
2022-10-05T00:36:40.292Z,89.63
2022-10-05T00:37:17.398Z,89.80
2022-10-05T00:37:54.176Z,90.09
2022-10-05T00:38:28.671Z,89.68
2022-10-05T00:39:06.314Z,90.15
2022-10-05T00:39:40.729Z,90.01
2022-10-05T00:40:29.547Z,89.90
2022-10-05T00:41:09.815Z,90.30
2022-10-05T00:41:55.637Z,90.26
2022-10-05T00:42:41.633Z,90.00
2022-10-05T00:43:34.311Z,90.12
2022-10-05T00:44:23.930Z,90.27
2022-10-05T00:45:03.004Z,90.21
2022-10-05T00:45:42.118Z,89.93
2022-10-05T00:46:20.870Z,90.27
2022-10-05T00:46:57.747Z,90.34
2022-10-05T00:47:42.758Z,89.81
2022-10-05T00:48:25.497Z,89.74
2022-10-05T00:49:09.625Z,89.77
2022-10-05T00:50:04.247Z,90.09
2022-10-05T00:51:03.561Z,89.64
2022-10-05T00:51:37.696Z,90.04
2022-10-05T00:52:23.661Z,89.84
2022-10-05T00:53:05.151Z,89.28
2022-10-05T00:53:46.541Z,89.51
2022-10-05T00:54:30.051Z,89.29
2022-10-05T00:55:10.496Z,89.49
2022-10-05T00:55:49.335Z,89.49
2022-10-05T00:56:44.276Z,89.23
2022-10-05T00:57:33.975Z,89.41
2022-10-05T00:58:17.113Z,89.79
2022-10-05T00:58:58.492Z,89.44
2022-10-05T00:59:49.273Z,89.18
2022-10-05T01:00:25.462Z,89.33
2022-10-05T01:01:12.144Z,89.44
2022-10-05T01:01:55.292Z,89.04
2022-10-05T01:02:38.148Z,89.01
2022-10-05T01:03:18.762Z,89.18
2022-10-05T01:04:02.839Z,89.01
2022-10-05T01:04:46.166Z,88.80
2022-10-05T01:05:35.852Z,89.19
2022-10-05T01:06:16.745Z,88.90
2022-10-05T01:07:04.900Z,89.45
2022-10-05T01:07:44.825Z,89.18
2022-10-05T01:08:31.203Z,88.98
2022-10-05T01:09:15.508Z,89.04
2022-10-05T01:09:56.600Z,89.54
2022-10-05T01:10:35.308Z,89.26
2022-10-05T01:11:17.525Z,89.30
2022-10-05T01:11:56.297Z,89.19
2022-10-05T01:12:37.603Z,89.12
2022-10-05T01:13:24.147Z,89.36
2022-10-05T01:14:04.104Z,88.96
2022-10-05T01:14:41.459Z,89.07
2022-10-05T01:15:23.802Z,88.84
2022-10-05T01:16:04.342Z,89.10
2022-10-05T01:16:49.506Z,88.90
2022-10-05T01:17:28.165Z,88.90
2022-10-05T01:18:13.056Z,88.75
2022-10-05T01:18:54.704Z,88.82
2022-10-05T01:19:51.577Z,88.53
2022-10-05T01:20:34.594Z,88.90
2022-10-05T01:21:14.714Z,88.46
2022-10-05T01:21:53.611Z,88.65
2022-10-05T01:22:43.989Z,88.70
2022-10-05T01:23:49.716Z,88.81
2022-10-05T01:24:50.826Z,88.68
2022-10-05T01:25:35.073Z,88.52
2022-10-05T01:26:35.992Z,88.75
2022-10-05T01:27:21.610Z,88.69
2022-10-05T01:28:03.148Z,88.53
2022-10-05T01:28:42.344Z,88.38
2022-10-05T01:29:21.597Z,88.31
2022-10-05T01:30:02.889Z,87.99
2022-10-05T01:30:44.818Z,88.06
2022-10-05T01:31:26.158Z,88.33
2022-10-05T01:32:08.208Z,87.86
2022-10-05T01:32:51.249Z,88.14
2022-10-05T01:33:29.235Z,87.79
2022-10-05T01:34:11.449Z,88.11
2022-10-05T01:34:52.602Z,88.03
2022-10-05T01:35:43.785Z,88.12
2022-10-05T01:36:25.030Z,88.01
2022-10-05T01:37:04.562Z,87.47
2022-10-05T01:37:48.918Z,87.82
2022-10-05T01:38:31.495Z,87.96
2022-10-05T01:39:14.173Z,87.99
2022-10-05T01:39:55.566Z,88.01
2022-10-05T01:40:33.844Z,88.07
2022-10-05T01:41:20.815Z,87.99
2022-10-05T01:42:02.183Z,87.99
2022-10-05T01:42:46.571Z,87.62
2022-10-05T01:43:33.028Z,87.67
2022-10-05T01:44:13.388Z,87.59
2022-10-05T01:44:49.606Z,87.79
2022-10-05T01:45:36.738Z,87.71
2022-10-05T01:46:20.826Z,88.15
2022-10-05T01:47:03.257Z,87.86
2022-10-05T01:47:46.584Z,87.56
2022-10-05T01:48:25.455Z,87.38
2022-10-05T01:49:17.907Z,87.94
2022-10-05T01:50:00.334Z,87.80
2022-10-05T01:50:43.900Z,87.83
2022-10-05T01:51:22.590Z,88.00
2022-10-05T01:52:11.048Z,87.97
2022-10-05T01:52:55.066Z,87.41
2022-10-05T01:53:37.631Z,87.81
2022-10-05T01:54:25.393Z,87.89
2022-10-05T01:55:12.760Z,87.84
2022-10-05T01:55:55.406Z,87.94
2022-10-05T01:56:34.995Z,87.45
2022-10-05T01:57:20.911Z,87.87
2022-10-05T01:58:07.847Z,87.84
2022-10-05T01:58:51.236Z,87.73
2022-10-05T01:59:34.705Z,87.82
2022-10-05T02:00:13.016Z,87.82
2022-10-05T02:00:58.051Z,87.49
2022-10-05T02:01:36.576Z,87.39
2022-10-05T02:02:15.690Z,87.46
2022-10-05T02:02:51.177Z,87.74
2022-10-05T02:03:27.606Z,87.37
2022-10-05T02:04:08.772Z,87.46
2022-10-05T02:05:03.241Z,87.09
2022-10-05T02:05:42.250Z,87.25
2022-10-05T02:06:21.532Z,87.36
2022-10-05T02:06:54.918Z,87.19
2022-10-05T02:07:37.439Z,87.21
2022-10-05T02:08:14.638Z,87.30
2022-10-05T02:08:50.740Z,87.13
2022-10-05T02:09:29.834Z,87.38
2022-10-05T02:10:06.659Z,87.53
2022-10-05T02:10:45.097Z,87.05
2022-10-05T02:11:19.862Z,87.22
2022-10-05T02:11:59.770Z,87.17
2022-10-05T02:12:37.963Z,87.29
2022-10-05T02:13:19.562Z,87.68
2022-10-05T02:13:59.202Z,87.12
2022-10-05T02:14:38.950Z,86.89
2022-10-05T02:15:16.029Z,86.60
2022-10-05T02:15:54.782Z,86.91
2022-10-05T02:16:35.475Z,86.67
2022-10-05T02:17:14.077Z,86.91
2022-10-05T02:17:50.595Z,87.16
2022-10-05T02:18:31.087Z,86.88
2022-10-05T02:19:14.686Z,86.94
2022-10-05T02:19:55.367Z,86.86
2022-10-05T02:20:32.722Z,86.69
2022-10-05T02:21:05.845Z,86.65
2022-10-05T02:21:41.191Z,86.79
2022-10-05T02:22:20.290Z,87.12
2022-10-05T02:22:55.290Z,87.15
2022-10-05T02:23:36.050Z,86.89
2022-10-05T02:24:13.393Z,86.62
2022-10-05T02:24:52.283Z,86.49
2022-10-05T02:25:33.386Z,86.70
2022-10-05T02:26:09.050Z,86.88
2022-10-05T02:26:44.830Z,86.69
2022-10-05T02:27:23.483Z,87.04
2022-10-05T02:28:03.012Z,86.41
2022-10-05T02:28:41.720Z,87.02
2022-10-05T02:29:20.406Z,87.00
2022-10-05T02:29:58.382Z,86.64
2022-10-05T02:30:34.530Z,86.59
2022-10-05T02:31:11.268Z,86.86
2022-10-05T02:31:50.631Z,87.06
2022-10-05T02:32:25.739Z,87.11
2022-10-05T02:33:02.821Z,86.90
2022-10-05T02:33:38.364Z,87.47
2022-10-05T02:34:27.734Z,86.98
2022-10-05T02:35:17.140Z,87.12
2022-10-05T02:35:50.804Z,87.02
2022-10-05T02:36:31.271Z,87.20
2022-10-05T02:37:12.342Z,87.13
2022-10-05T02:37:54.463Z,87.40
2022-10-05T02:38:38.593Z,87.25
2022-10-05T02:39:18.996Z,87.13
2022-10-05T02:40:05.263Z,86.97
2022-10-05T02:40:50.692Z,86.98
2022-10-05T02:41:36.032Z,86.98
2022-10-05T02:42:18.688Z,86.99
2022-10-05T02:43:00.757Z,86.83
2022-10-05T02:43:46.929Z,87.15
2022-10-05T02:44:33.502Z,87.29
2022-10-05T02:45:18.353Z,86.94
2022-10-05T02:45:58.008Z,87.37
2022-10-05T02:46:41.176Z,87.06
2022-10-05T02:47:22.561Z,86.98
2022-10-05T02:48:06.917Z,87.04
2022-10-05T02:48:48.797Z,86.88
2022-10-05T02:49:33.840Z,86.94
2022-10-05T02:50:16.360Z,86.88
2022-10-05T02:50:56.191Z,87.00
2022-10-05T02:51:39.767Z,87.03
2022-10-05T02:52:17.126Z,86.89
2022-10-05T02:52:59.584Z,86.98
2022-10-05T02:53:40.648Z,86.88
2022-10-05T02:54:24.450Z,86.81
2022-10-05T02:55:05.475Z,86.72
2022-10-05T02:55:46.580Z,86.48
2022-10-05T02:56:26.500Z,86.18
2022-10-05T02:57:07.578Z,86.54
2022-10-05T02:57:45.997Z,86.67
2022-10-05T02:58:23.662Z,87.00
2022-10-05T02:59:07.224Z,86.80
2022-10-05T02:59:47.131Z,86.54
2022-10-05T03:00:22.078Z,86.64
2022-10-05T03:01:03.045Z,86.61
2022-10-05T03:01:44.078Z,86.44
2022-10-05T03:02:21.332Z,86.41
2022-10-05T03:03:05.015Z,86.79
2022-10-05T03:03:42.247Z,86.72
2022-10-05T03:04:25.574Z,86.57
2022-10-05T03:05:11.732Z,86.83
2022-10-05T03:05:48.687Z,86.75
2022-10-05T03:06:27.559Z,86.27
2022-10-05T03:07:14.322Z,86.54
2022-10-05T03:07:55.895Z,86.21
2022-10-05T03:08:40.199Z,86.22
2022-10-05T03:09:15.558Z,86.27
2022-10-05T03:10:00.881Z,86.71
2022-10-05T03:10:41.927Z,86.52
2022-10-05T03:11:24.400Z,86.78
2022-10-05T03:12:12.463Z,86.83
2022-10-05T03:12:52.943Z,86.92
2022-10-05T03:13:42.314Z,86.59
2022-10-05T03:14:23.227Z,86.35
2022-10-05T03:15:04.134Z,86.55
2022-10-05T03:15:52.405Z,86.51
2022-10-05T03:16:38.508Z,86.40
2022-10-05T03:17:19.247Z,86.58
2022-10-05T03:18:04.355Z,86.32
2022-10-05T03:18:49.370Z,86.52
2022-10-05T03:19:33.436Z,86.74
2022-10-05T03:20:25.422Z,86.71
2022-10-05T03:21:11.105Z,86.08
2022-10-05T03:21:53.687Z,85.92
2022-10-05T03:22:41.433Z,86.31
2022-10-05T03:23:22.287Z,86.08
2022-10-05T03:24:15.216Z,86.16
2022-10-05T03:25:17.517Z,86.53
2022-10-05T03:26:10.412Z,86.60
2022-10-05T03:26:53.347Z,86.83
2022-10-05T03:27:39.362Z,86.10
2022-10-05T03:28:19.259Z,86.30
2022-10-05T03:29:03.441Z,86.58
2022-10-05T03:29:43.673Z,86.15
2022-10-05T03:30:21.931Z,86.28
2022-10-05T03:31:05.650Z,86.22
2022-10-05T03:31:49.767Z,85.97
2022-10-05T03:32:30.384Z,85.91
2022-10-05T03:33:11.629Z,85.61
2022-10-05T03:33:50.884Z,85.46
2022-10-05T03:34:30.251Z,85.39
2022-10-05T03:35:07.923Z,85.55
2022-10-05T03:35:53.237Z,85.33
2022-10-05T03:36:32.636Z,84.95
2022-10-05T03:37:14.726Z,85.13
2022-10-05T03:37:53.620Z,84.99
2022-10-05T03:38:37.836Z,84.77
2022-10-05T03:39:16.167Z,84.81
2022-10-05T03:39:57.563Z,85.29
2022-10-05T03:40:38.815Z,84.85
2022-10-05T03:41:24.266Z,85.31
2022-10-05T03:42:04.176Z,84.85
2022-10-05T03:42:52.267Z,84.94
2022-10-05T03:43:52.513Z,85.18
2022-10-05T03:44:36.895Z,85.05
2022-10-05T03:45:26.590Z,84.80
2022-10-05T03:46:09.337Z,85.16
2022-10-05T03:46:56.729Z,85.05
2022-10-05T03:47:36.978Z,85.27
2022-10-05T03:48:12.018Z,85.47
2022-10-05T03:48:55.310Z,85.09
2022-10-05T03:49:36.943Z,85.20
2022-10-05T03:50:33.586Z,84.83
2022-10-05T03:51:13.333Z,84.86
2022-10-05T03:51:49.213Z,84.96
2022-10-05T03:52:29.431Z,84.94
2022-10-05T03:53:06.049Z,85.03
2022-10-05T03:53:44.155Z,84.61
2022-10-05T03:54:25.905Z,84.60
2022-10-05T03:55:03.758Z,84.56
2022-10-05T03:55:41.154Z,84.57
2022-10-05T03:56:20.426Z,84.95
2022-10-05T03:56:55.828Z,84.41
2022-10-05T03:57:36.315Z,84.70
2022-10-05T03:58:16.187Z,84.58
2022-10-05T03:59:00.994Z,84.62
2022-10-05T03:59:40.577Z,84.43
2022-10-05T04:00:16.562Z,84.64
2022-10-05T04:01:10.303Z,84.18
2022-10-05T04:01:48.114Z,84.96
2022-10-05T04:02:25.264Z,84.78
2022-10-05T04:03:05.639Z,84.42
2022-10-05T04:03:44.273Z,84.43
2022-10-05T04:04:21.395Z,84.37
2022-10-05T04:05:01.931Z,84.62
2022-10-05T04:05:39.618Z,84.22
2022-10-05T04:06:18.071Z,84.28
2022-10-05T04:06:55.874Z,84.81
2022-10-05T04:07:42.853Z,84.46
2022-10-05T04:08:27.824Z,84.65
2022-10-05T04:09:04.611Z,84.63
2022-10-05T04:09:41.260Z,84.51
2022-10-05T04:10:21.940Z,84.42
2022-10-05T04:10:57.341Z,84.47
2022-10-05T04:11:35.646Z,84.40
2022-10-05T04:12:19.089Z,84.81
2022-10-05T04:12:58.653Z,84.16
2022-10-05T04:13:38.401Z,84.21
2022-10-05T04:14:15.493Z,84.12
2022-10-05T04:14:52.157Z,84.36
2022-10-05T04:15:33.764Z,84.51
2022-10-05T04:16:14.406Z,83.95
2022-10-05T04:16:52.706Z,84.25
2022-10-05T04:17:35.729Z,84.10
2022-10-05T04:18:21.051Z,84.32
2022-10-05T04:19:04.092Z,84.14
2022-10-05T04:19:44.409Z,83.84
2022-10-05T04:20:21.320Z,84.15
2022-10-05T04:21:01.727Z,84.36
2022-10-05T04:21:43.948Z,84.37
2022-10-05T04:22:21.133Z,84.22
2022-10-05T04:23:03.297Z,84.44
2022-10-05T04:23:48.361Z,84.47
2022-10-05T04:24:31.665Z,84.17
2022-10-05T04:25:14.807Z,84.95
2022-10-05T04:25:51.685Z,84.56
2022-10-05T04:26:34.806Z,84.60
2022-10-05T04:27:11.501Z,84.92
2022-10-05T04:27:47.555Z,84.74
2022-10-05T04:28:32.373Z,84.60
2022-10-05T04:29:14.391Z,84.95
2022-10-05T04:29:56.923Z,84.63
2022-10-05T04:30:33.219Z,85.10
2022-10-05T04:31:07.337Z,84.50
2022-10-05T04:31:58.596Z,85.07
2022-10-05T04:32:37.642Z,84.69
2022-10-05T04:33:11.686Z,84.46
2022-10-05T04:33:51.956Z,84.77
2022-10-05T04:34:42.908Z,84.87
2022-10-05T04:35:40.968Z,84.99
2022-10-05T04:36:22.452Z,84.77
2022-10-05T04:36:59.430Z,84.78
2022-10-05T04:37:46.649Z,85.05
2022-10-05T04:38:35.111Z,85.09
2022-10-05T04:39:21.715Z,85.60
2022-10-05T04:40:08.926Z,85.51
2022-10-05T04:40:55.527Z,85.19
2022-10-05T04:41:44.899Z,85.22
2022-10-05T04:42:31.561Z,85.48
2022-10-05T04:43:13.585Z,85.16
2022-10-05T04:44:00.127Z,85.20
2022-10-05T04:44:51.059Z,85.18
2022-10-05T04:45:32.965Z,85.48
2022-10-05T04:46:17.555Z,85.16
2022-10-05T04:47:15.189Z,85.62
2022-10-05T04:48:16.437Z,85.66
2022-10-05T04:49:16.885Z,85.53
2022-10-05T04:50:07.185Z,85.28
2022-10-05T04:50:55.553Z,85.53
2022-10-05T04:51:37.405Z,85.80
2022-10-05T04:52:23.447Z,85.72
2022-10-05T04:53:05.301Z,85.87
2022-10-05T04:53:46.405Z,85.44
2022-10-05T04:54:31.615Z,85.54
2022-10-05T04:55:15.702Z,85.59
2022-10-05T04:55:57.908Z,85.91
2022-10-05T04:56:37.708Z,85.86
2022-10-05T04:57:14.241Z,85.64
2022-10-05T04:58:00.364Z,85.38
2022-10-05T04:58:47.118Z,85.82
2022-10-05T04:59:42.132Z,85.20
2022-10-05T05:00:22.800Z,85.30
2022-10-05T05:01:09.796Z,85.50
2022-10-05T05:01:56.460Z,85.12
2022-10-05T05:02:43.647Z,85.27
2022-10-05T05:03:40.322Z,85.28
2022-10-05T05:04:36.585Z,85.02
2022-10-05T05:05:30.227Z,85.09
2022-10-05T05:06:17.267Z,84.91
2022-10-05T05:07:10.568Z,84.91
2022-10-05T05:07:49.770Z,85.50
2022-10-05T05:08:37.875Z,84.99
2022-10-05T05:09:47.023Z,85.13
2022-10-05T05:10:39.846Z,85.49
2022-10-05T05:11:29.255Z,85.44
2022-10-05T05:12:12.113Z,85.43
2022-10-05T05:12:57.223Z,85.52
2022-10-05T05:14:04.978Z,85.48
2022-10-05T05:14:56.055Z,85.39
2022-10-05T05:15:41.815Z,85.08
2022-10-05T05:16:26.277Z,85.45
2022-10-05T05:17:14.978Z,85.03
2022-10-05T05:18:06.809Z,85.37
2022-10-05T05:18:53.510Z,84.94
2022-10-05T05:19:40.459Z,84.89
2022-10-05T05:20:24.198Z,85.04
2022-10-05T05:21:05.754Z,85.22
2022-10-05T05:21:49.394Z,84.90
2022-10-05T05:22:31.779Z,85.14
2022-10-05T05:23:10.426Z,84.98
2022-10-05T05:23:53.304Z,85.23
2022-10-05T05:24:37.239Z,84.81
2022-10-05T05:25:34.563Z,85.01
2022-10-05T05:26:14.895Z,85.09
2022-10-05T05:27:01.337Z,84.54
2022-10-05T05:27:44.807Z,84.64
2022-10-05T05:28:29.890Z,84.77
2022-10-05T05:29:14.891Z,84.68
2022-10-05T05:29:58.938Z,85.08
2022-10-05T05:30:41.036Z,84.63
2022-10-05T05:31:27.025Z,84.73
2022-10-05T05:32:08.794Z,84.58
2022-10-05T05:32:50.326Z,84.86
2022-10-05T05:33:37.822Z,84.75
2022-10-05T05:34:26.207Z,84.79
2022-10-05T05:35:17.411Z,84.59
2022-10-05T05:36:23.430Z,84.16
2022-10-05T05:37:11.242Z,84.22
2022-10-05T05:37:53.591Z,84.18
2022-10-05T05:38:33.143Z,84.10
2022-10-05T05:39:25.850Z,83.85
2022-10-05T05:40:07.920Z,84.32
2022-10-05T05:40:48.106Z,84.19
2022-10-05T05:41:29.835Z,84.13
2022-10-05T05:42:17.793Z,84.39
2022-10-05T05:43:00.736Z,84.11
2022-10-05T05:43:42.201Z,83.90
2022-10-05T05:44:26.542Z,84.00
2022-10-05T05:45:07.585Z,84.09
2022-10-05T05:45:44.275Z,84.00
2022-10-05T05:46:51.097Z,83.95
2022-10-05T05:47:24.564Z,84.26
2022-10-05T05:48:02.973Z,84.23
2022-10-05T05:48:40.887Z,84.17
2022-10-05T05:49:20.152Z,83.54
2022-10-05T05:50:10.267Z,83.63
2022-10-05T05:50:55.295Z,83.67
2022-10-05T05:51:37.405Z,83.91
2022-10-05T05:52:18.445Z,83.59
2022-10-05T05:52:55.815Z,83.80
2022-10-05T05:53:35.378Z,83.60
2022-10-05T05:54:22.956Z,83.70
2022-10-05T05:55:02.875Z,83.87
2022-10-05T05:55:38.665Z,83.61
2022-10-05T05:56:16.070Z,83.58
2022-10-05T05:56:53.433Z,83.56
2022-10-05T05:57:30.027Z,83.34
2022-10-05T05:58:12.782Z,83.13
2022-10-05T05:58:51.060Z,83.28
2022-10-05T05:59:30.630Z,83.38
2022-10-05T06:00:07.096Z,82.93
2022-10-05T06:01:02.603Z,82.80
2022-10-05T06:01:44.343Z,82.97
2022-10-05T06:02:22.007Z,82.81
2022-10-05T06:03:03.227Z,82.27
2022-10-05T06:03:43.441Z,82.39
2022-10-05T06:04:25.378Z,83.05
2022-10-05T06:05:03.407Z,82.43
2022-10-05T06:05:40.793Z,82.25
2022-10-05T06:06:19.078Z,82.55
2022-10-05T06:06:57.346Z,82.34
2022-10-05T06:07:31.516Z,82.44
2022-10-05T06:08:16.870Z,82.34
2022-10-05T06:08:53.827Z,82.51
2022-10-05T06:09:48.890Z,82.15
2022-10-05T06:10:47.498Z,82.21
2022-10-05T06:11:26.987Z,82.41
2022-10-05T06:12:05.047Z,82.43
2022-10-05T06:12:44.842Z,82.59
2022-10-05T06:13:22.535Z,81.95
2022-10-05T06:13:58.111Z,82.42
2022-10-05T06:14:38.091Z,82.06
2022-10-05T06:15:23.767Z,82.10
2022-10-05T06:15:59.973Z,82.40
2022-10-05T06:16:40.875Z,82.36
2022-10-05T06:17:18.583Z,82.45
2022-10-05T06:17:58.914Z,82.51
2022-10-05T06:18:33.167Z,82.18
2022-10-05T06:19:16.122Z,82.10
2022-10-05T06:19:53.373Z,81.75
2022-10-05T06:20:31.199Z,82.03
2022-10-05T06:21:14.400Z,81.78
2022-10-05T06:21:51.616Z,81.75
2022-10-05T06:22:30.368Z,82.25
2022-10-05T06:23:12.962Z,81.60
2022-10-05T06:23:52.009Z,81.88
2022-10-05T06:24:32.681Z,81.51
2022-10-05T06:25:17.067Z,81.53
2022-10-05T06:26:11.105Z,80.69
2022-10-05T06:27:19.481Z,80.47
2022-10-05T06:28:12.268Z,80.24
2022-10-05T06:29:00.922Z,80.28
2022-10-05T06:29:51.116Z,80.11
2022-10-05T06:30:24.118Z,80.08
2022-10-05T06:31:06.942Z,79.59
2022-10-05T06:31:58.734Z,80.17
2022-10-05T06:32:37.974Z,80.12
2022-10-05T06:33:23.153Z,80.34
2022-10-05T06:34:05.902Z,80.05
2022-10-05T06:34:56.588Z,79.75
2022-10-05T06:35:41.461Z,79.84
2022-10-05T06:36:27.292Z,80.22
2022-10-05T06:37:02.588Z,80.57
2022-10-05T06:38:00.609Z,80.23
2022-10-05T06:38:59.913Z,80.54
2022-10-05T06:40:03.311Z,80.35
2022-10-05T06:40:53.231Z,80.21
2022-10-05T06:41:42.178Z,80.64
2022-10-05T06:42:34.359Z,80.53
2022-10-05T06:43:49.365Z,80.33
2022-10-05T06:44:48.003Z,80.71
2022-10-05T06:45:54.821Z,80.57
2022-10-05T06:46:40.481Z,80.84
2022-10-05T06:47:52.706Z,80.58
2022-10-05T06:49:11.822Z,80.67
2022-10-05T06:50:04.318Z,80.35
2022-10-05T06:50:50.558Z,80.18
2022-10-05T06:51:38.884Z,80.40
2022-10-05T06:52:25.911Z,79.95
2022-10-05T06:53:09.185Z,79.93
2022-10-05T06:53:50.828Z,80.03
2022-10-05T06:54:48.557Z,80.17
2022-10-05T06:55:30.298Z,80.26
2022-10-05T06:56:08.365Z,79.82
2022-10-05T06:56:48.652Z,80.12
2022-10-05T06:57:38.376Z,79.87
2022-10-05T06:58:33.408Z,79.44
2022-10-05T06:59:10.303Z,79.46
2022-10-05T06:59:52.819Z,79.89
2022-10-05T07:00:28.248Z,79.94
2022-10-05T07:01:10.813Z,80.04
2022-10-05T07:01:54.042Z,79.57
2022-10-05T07:02:33.101Z,79.71
2022-10-05T07:03:15.022Z,79.62
2022-10-05T07:04:06.280Z,79.69
2022-10-05T07:04:55.738Z,79.89
2022-10-05T07:05:53.407Z,79.93
2022-10-05T07:06:37.724Z,79.11
2022-10-05T07:07:19.788Z,79.30
2022-10-05T07:07:56.458Z,79.15
2022-10-05T07:08:41.655Z,79.14
2022-10-05T07:09:28.522Z,79.57
2022-10-05T07:10:19.779Z,79.10
2022-10-05T07:11:04.829Z,78.96
2022-10-05T07:12:04.554Z,78.10
2022-10-05T07:12:52.613Z,78.67
2022-10-05T07:13:43.121Z,78.73
2022-10-05T07:14:32.068Z,78.64
2022-10-05T07:15:24.127Z,78.25
2022-10-05T07:16:05.143Z,78.32
2022-10-05T07:16:49.653Z,78.02
2022-10-05T07:17:37.389Z,78.21
2022-10-05T07:18:32.187Z,78.18
2022-10-05T07:19:21.751Z,77.25
2022-10-05T07:20:02.198Z,76.26
2022-10-05T07:20:49.351Z,76.23
2022-10-05T07:21:35.858Z,74.97
2022-10-05T07:22:33.417Z,75.28
2022-10-05T07:23:22.995Z,75.50
2022-10-05T07:24:07.229Z,75.75
2022-10-05T07:24:43.050Z,75.42
2022-10-05T07:25:20.553Z,75.53
2022-10-05T07:26:06.726Z,76.03
2022-10-05T07:26:44.035Z,75.80
2022-10-05T07:27:22.420Z,76.27
2022-10-05T07:28:00.890Z,76.16
2022-10-05T07:28:44.133Z,75.95
2022-10-05T07:29:23.818Z,76.48
2022-10-05T07:30:04.971Z,76.45
2022-10-05T07:30:47.649Z,76.38
2022-10-05T07:31:32.517Z,76.27
2022-10-05T07:32:14.642Z,76.45
2022-10-05T07:33:00.195Z,76.29
2022-10-05T07:33:40.281Z,76.86
2022-10-05T07:34:18.880Z,76.16
2022-10-05T07:35:01.652Z,76.17
2022-10-05T07:36:00.801Z,75.31
2022-10-05T07:36:58.965Z,74.37
2022-10-05T07:37:57.959Z,74.56
2022-10-05T07:38:43.565Z,74.79
2022-10-05T07:39:42.092Z,74.55
2022-10-05T07:40:24.700Z,74.62
2022-10-05T07:41:06.184Z,75.02
2022-10-05T07:41:44.177Z,74.95
2022-10-05T07:42:25.096Z,74.80
2022-10-05T07:43:16.703Z,74.50
2022-10-05T07:44:02.376Z,74.31
2022-10-05T07:44:45.566Z,73.44
2022-10-05T07:45:27.979Z,73.67
2022-10-05T07:46:12.701Z,73.24
2022-10-05T07:46:53.602Z,73.38
2022-10-05T07:47:35.698Z,73.92
2022-10-05T07:48:18.480Z,73.27
2022-10-05T07:49:03.412Z,72.73
2022-10-05T07:49:48.568Z,73.35
2022-10-05T07:50:26.786Z,73.74
2022-10-05T07:51:09.056Z,73.48
2022-10-05T07:51:48.477Z,73.19
2022-10-05T07:52:32.378Z,73.52
2022-10-05T07:53:15.732Z,72.78
2022-10-05T07:53:55.813Z,73.28
2022-10-05T07:54:38.050Z,72.85
2022-10-05T07:55:21.872Z,73.44
2022-10-05T07:56:00.378Z,73.42
2022-10-05T07:56:43.521Z,73.47
2022-10-05T07:57:24.538Z,73.23
2022-10-05T07:58:08.815Z,73.33
2022-10-05T07:58:44.433Z,72.75
2022-10-05T07:59:28.335Z,72.60
2022-10-05T08:00:04.479Z,71.82
2022-10-05T08:01:06.548Z,72.10
2022-10-05T08:01:44.762Z,71.97
2022-10-05T08:02:27.359Z,71.68
2022-10-05T08:03:08.038Z,71.20
2022-10-05T08:03:52.383Z,71.58
2022-10-05T08:04:28.525Z,71.88
2022-10-05T08:05:07.315Z,71.54
2022-10-05T08:05:42.567Z,71.45
2022-10-05T08:06:29.248Z,70.63
2022-10-05T08:07:09.812Z,70.67
2022-10-05T08:07:42.342Z,70.81
2022-10-05T08:08:25.944Z,70.48
2022-10-05T08:09:04.685Z,70.07
2022-10-05T08:09:45.539Z,69.98
2022-10-05T08:10:26.131Z,70.01
2022-10-05T08:11:05.688Z,69.86
2022-10-05T08:11:46.810Z,69.03
2022-10-05T08:12:33.958Z,69.47
2022-10-05T08:13:13.790Z,69.42
2022-10-05T08:13:54.677Z,68.12
2022-10-05T08:14:38.188Z,67.98
2022-10-05T08:15:18.126Z,68.57
2022-10-05T08:15:54.086Z,69.09
2022-10-05T08:16:31.035Z,68.01
2022-10-05T08:17:12.976Z,67.81
2022-10-05T08:17:53.476Z,67.96
2022-10-05T08:18:44.004Z,68.25
2022-10-05T08:19:20.477Z,68.52
2022-10-05T08:20:03.934Z,68.91
2022-10-05T08:20:42.718Z,68.78
2022-10-05T08:21:21.566Z,67.85
2022-10-05T08:22:00.186Z,68.64
2022-10-05T08:22:47.081Z,67.95
2022-10-05T08:23:24.080Z,67.10
2022-10-05T08:24:04.201Z,66.98
2022-10-05T08:24:43.516Z,67.96
2022-10-05T08:25:24.780Z,68.01
2022-10-05T08:26:18.449Z,67.54
2022-10-05T08:26:56.246Z,67.99
2022-10-05T08:27:40.888Z,67.85
2022-10-05T08:28:18.861Z,67.60
2022-10-05T08:29:02.130Z,67.54
2022-10-05T08:29:41.115Z,68.12
2022-10-05T08:30:15.597Z,67.88
2022-10-05T08:31:02.176Z,67.63
2022-10-05T08:31:37.379Z,67.48
2022-10-05T08:32:21.009Z,66.01
2022-10-05T08:33:00.748Z,65.89
2022-10-05T08:33:46.037Z,66.91
2022-10-05T08:34:25.043Z,65.93
2022-10-05T08:35:07.140Z,66.40
2022-10-05T08:35:44.068Z,67.07
2022-10-05T08:36:25.571Z,66.77
2022-10-05T08:37:04.103Z,66.76
2022-10-05T08:37:45.380Z,66.93
2022-10-05T08:38:20.413Z,66.12
2022-10-05T08:38:55.598Z,66.18
2022-10-05T08:39:34.681Z,66.12
2022-10-05T08:40:45.309Z,65.80
2022-10-05T08:41:58.779Z,66.51
2022-10-05T08:42:51.549Z,66.70
2022-10-05T08:43:59.797Z,66.55
2022-10-05T08:45:01.972Z,66.56
2022-10-05T08:46:12.336Z,66.43
2022-10-05T08:47:10.572Z,65.91
2022-10-05T08:48:23.580Z,65.60
2022-10-05T08:49:38.869Z,66.82
2022-10-05T08:50:28.067Z,66.56
2022-10-05T08:51:23.561Z,66.86
2022-10-05T08:52:29.005Z,66.65
2022-10-05T08:53:29.030Z,66.35
2022-10-05T08:54:24.053Z,66.05
2022-10-05T08:55:37.461Z,65.06
2022-10-05T08:56:30.547Z,65.16
2022-10-05T08:57:26.891Z,65.33
2022-10-05T08:58:26.700Z,64.63
2022-10-05T08:59:24.158Z,64.03
2022-10-05T09:00:10.469Z,64.42
2022-10-05T09:00:56.902Z,64.17
2022-10-05T09:01:40.949Z,63.01
2022-10-05T09:02:37.709Z,62.82
2022-10-05T09:03:36.058Z,63.64
2022-10-05T09:04:28.360Z,63.86
2022-10-05T09:05:38.471Z,63.63
2022-10-05T09:06:30.838Z,63.71
2022-10-05T09:07:15.496Z,63.44
2022-10-05T09:08:27.426Z,64.03
2022-10-05T09:09:25.427Z,63.61
2022-10-05T09:10:37.097Z,64.51
2022-10-05T09:11:19.933Z,64.01
2022-10-05T09:12:17.135Z,64.32
2022-10-05T09:13:20.931Z,64.63
2022-10-05T09:14:17.137Z,65.04
2022-10-05T09:15:20.810Z,65.02
2022-10-05T09:16:20.369Z,65.64
2022-10-05T09:17:20.421Z,65.66
2022-10-05T09:18:29.347Z,66.06
2022-10-05T09:19:31.296Z,65.77
2022-10-05T09:20:32.591Z,65.88